createdAt,value
2023-02-23T00:02:01.612Z,28.90
2023-02-23T00:04:38.406Z,27.90
2023-02-23T00:07:05.707Z,28.73
2023-02-23T00:09:32.968Z,28.93
2023-02-23T00:12:00.344Z,29.50
2023-02-23T00:14:28.711Z,30.57
2023-02-23T00:20:01.208Z,28.13
2023-02-23T00:22:28.419Z,30.57
2023-02-23T00:24:55.599Z,28.67
2023-02-23T00:27:22.822Z,29.00
2023-02-23T00:29:50.268Z,29.30
2023-02-23T00:32:19.709Z,29.80
2023-02-23T00:37:36.937Z,28.97
2023-02-23T00:40:04.920Z,30.03
2023-02-23T00:42:32.580Z,29.13
2023-02-23T00:48:27.399Z,26.73
2023-02-23T00:51:03.495Z,29.23
2023-02-23T00:53:30.896Z,29.60
2023-02-23T00:55:58.478Z,28.27
2023-02-23T00:58:26.180Z,28.87
2023-02-23T01:00:53.997Z,29.20
2023-02-23T01:03:21.783Z,27.77
2023-02-23T01:05:55.199Z,30.10
2023-02-23T01:08:24.333Z,29.57
2023-02-23T01:10:51.914Z,30.97
2023-02-23T01:13:19.331Z,28.10
2023-02-23T01:15:52.100Z,27.93
2023-02-23T01:22:01.477Z,28.37
2023-02-23T01:24:30.204Z,29.40
2023-02-23T01:26:57.501Z,27.13
2023-02-23T01:29:24.861Z,27.67
2023-02-23T01:31:52.230Z,29.73
2023-02-23T01:34:27.427Z,23.47
2023-02-23T01:36:54.707Z,28.10
2023-02-23T01:39:22.102Z,28.67
2023-02-23T01:41:50.751Z,29.77
2023-02-23T01:51:39.873Z,29.50
2023-02-23T01:54:10.042Z,29.03
2023-02-23T01:56:38.761Z,29.27
2023-02-23T01:59:08.805Z,29.77
2023-02-23T02:01:36.445Z,28.90
2023-02-23T02:04:22.466Z,29.00
2023-02-23T02:06:50.525Z,31.50
2023-02-23T02:09:19.251Z,27.27
2023-02-23T02:11:47.310Z,27.43
2023-02-23T02:14:35.966Z,29.73
2023-02-23T02:17:28.992Z,26.93
2023-02-23T02:20:15.718Z,28.53
2023-02-23T02:22:52.605Z,26.73
2023-02-23T02:25:30.171Z,28.37
2023-02-23T02:28:14.683Z,29.80
2023-02-23T02:30:57.189Z,30.77
2023-02-23T02:33:45.895Z,33.43
2023-02-23T02:36:26.968Z,29.60
2023-02-23T02:38:57.709Z,29.40
2023-02-23T02:41:28.665Z,30.83
2023-02-23T02:44:27.695Z,29.27
2023-02-23T02:47:22.410Z,30.80
2023-02-23T02:50:03.671Z,30.77
2023-02-23T02:52:32.355Z,29.67
2023-02-23T02:55:03.950Z,30.37
2023-02-23T02:57:31.696Z,29.57
2023-02-23T02:59:59.265Z,30.73
2023-02-23T03:02:26.526Z,31.80
2023-02-23T03:05:13.801Z,32.93
2023-02-23T03:07:44.544Z,30.17
2023-02-23T03:10:19.038Z,28.17
2023-02-23T03:12:51.912Z,30.00
2023-02-23T03:15:47.464Z,25.60
2023-02-23T03:18:35.788Z,31.20
2023-02-23T03:21:06.696Z,29.00
2023-02-23T03:23:39.251Z,32.00
2023-02-23T03:26:10.849Z,30.60
2023-02-23T03:28:43.578Z,30.80
2023-02-23T03:31:15.296Z,30.20
2023-02-23T03:33:57.136Z,31.53
2023-02-23T03:36:26.553Z,30.70
2023-02-23T03:38:56.798Z,30.23
2023-02-23T03:41:27.240Z,30.13
2023-02-23T03:43:57.963Z,31.17
2023-02-23T03:46:47.745Z,32.50
2023-02-23T03:49:35.725Z,32.50
2023-02-23T03:52:06.555Z,31.97
2023-02-23T03:54:35.303Z,30.10
2023-02-23T03:57:06.199Z,27.57
2023-02-23T03:59:35.014Z,30.10
2023-02-23T04:02:03.558Z,29.30
2023-02-23T04:04:31.559Z,30.93
2023-02-23T04:07:00.597Z,29.53
2023-02-23T04:09:28.052Z,30.40
2023-02-23T04:11:57.469Z,27.13
2023-02-23T04:14:51.623Z,27.70
2023-02-23T04:17:47.048Z,29.70
2023-02-23T04:20:29.284Z,29.17
2023-02-23T04:22:56.563Z,31.23
2023-02-23T04:25:24.197Z,31.40
2023-02-23T04:27:51.608Z,28.10
2023-02-23T04:30:19.281Z,30.03
2023-02-23T04:32:46.792Z,29.03
2023-02-23T04:35:23.375Z,29.83
2023-02-23T04:37:51.962Z,28.17
2023-02-23T04:40:19.285Z,28.97
2023-02-23T04:42:46.521Z,25.00
2023-02-23T04:45:33.937Z,29.40
2023-02-23T04:48:44.928Z,29.60
2023-02-23T04:51:12.231Z,30.50
2023-02-23T04:53:40.840Z,32.57
2023-02-23T04:56:08.115Z,32.50
2023-02-23T04:58:35.352Z,31.50
2023-02-23T05:01:06.499Z,31.50
2023-02-23T05:06:23.080Z,32.40
2023-02-23T05:08:51.992Z,29.33
2023-02-23T05:11:19.507Z,32.40
2023-02-23T05:13:59.231Z,30.00
2023-02-23T05:16:49.073Z,31.83
2023-02-23T05:19:36.238Z,29.70
2023-02-23T05:22:03.719Z,29.83
2023-02-23T05:24:47.769Z,30.97
2023-02-23T05:27:15.812Z,30.07
2023-02-23T05:29:43.078Z,29.90
2023-02-23T05:32:10.474Z,30.43
2023-02-23T05:37:27.131Z,29.33
2023-02-23T05:39:56.121Z,30.50
2023-02-23T05:42:23.346Z,28.27
2023-02-23T05:45:12.914Z,31.70
2023-02-23T05:47:55.735Z,30.43
2023-02-23T05:50:23.093Z,30.43
2023-02-23T05:52:50.406Z,29.17
2023-02-23T05:55:19.117Z,29.07
2023-02-23T05:57:46.384Z,30.23
2023-02-23T06:00:13.856Z,29.07
2023-02-23T06:05:31.071Z,31.13
2023-02-23T06:07:58.670Z,30.57
2023-02-23T06:10:27.511Z,32.10
2023-02-23T06:19:39.805Z,29.93
2023-02-23T06:22:07.129Z,30.33
2023-02-23T06:24:34.428Z,29.20
2023-02-23T06:27:03.094Z,31.67
2023-02-23T06:29:30.393Z,30.50
2023-02-23T06:32:16.139Z,30.17
2023-02-23T06:34:47.865Z,29.67
2023-02-23T06:37:15.152Z,29.33
2023-02-23T06:39:42.362Z,30.00
2023-02-23T06:42:10.987Z,29.57
2023-02-23T06:44:45.124Z,30.77
2023-02-23T06:47:24.423Z,30.33
2023-02-23T06:49:51.626Z,28.40
2023-02-23T06:52:18.952Z,31.17
2023-02-23T06:54:46.161Z,29.50
2023-02-23T06:57:14.732Z,30.80
2023-02-23T06:59:42.000Z,28.03
2023-02-23T07:02:11.117Z,29.37
2023-02-23T07:04:38.417Z,27.90
2023-02-23T07:07:05.886Z,29.73
2023-02-23T07:09:33.397Z,29.50
2023-02-23T07:12:00.667Z,28.57
2023-02-23T07:14:31.935Z,25.93
2023-02-23T07:19:52.862Z,27.00
2023-02-23T07:22:20.435Z,23.20
2023-02-23T07:24:47.695Z,26.30
2023-02-23T07:27:15.010Z,24.70
2023-02-23T07:29:43.687Z,24.10
2023-02-23T07:32:11.022Z,25.37
2023-02-23T07:35:01.120Z,23.43
2023-02-23T07:37:50.319Z,24.90
2023-02-23T07:40:18.646Z,24.50
2023-02-23T07:42:45.867Z,23.80
2023-02-23T07:45:14.502Z,24.90
2023-02-23T07:47:41.798Z,22.00
2023-02-23T07:50:09.563Z,23.53
2023-02-23T07:52:38.734Z,20.23
2023-02-23T07:55:07.141Z,22.80
2023-02-23T07:57:35.193Z,20.67
2023-02-23T08:00:03.198Z,19.43
2023-02-23T08:02:41.411Z,18.80
2023-02-23T08:05:08.825Z,19.30
2023-02-23T08:07:36.334Z,15.90
2023-02-23T08:10:03.614Z,14.87
2023-02-23T08:12:32.506Z,12.60
2023-02-23T08:14:59.798Z,14.40
2023-02-23T08:17:27.095Z,12.70
2023-02-23T08:19:55.783Z,13.70
2023-02-23T08:22:23.128Z,13.03
2023-02-23T08:24:50.437Z,12.30
2023-02-23T08:27:17.865Z,13.63
2023-02-23T08:29:45.450Z,12.70
2023-02-23T08:32:13.091Z,12.07
2023-02-23T08:34:40.781Z,10.97
2023-02-23T08:37:09.484Z,10.90
2023-02-23T08:39:36.988Z,10.20
2023-02-23T08:42:23.148Z,12.00
2023-02-23T08:44:50.476Z,10.77
2023-02-23T08:47:17.894Z,10.90
2023-02-23T08:49:45.201Z,10.00
2023-02-23T08:52:13.884Z,8.80
2023-02-23T08:54:41.135Z,8.77
2023-02-23T08:57:08.712Z,10.10
2023-02-23T08:59:36.416Z,9.43
2023-02-23T09:02:03.685Z,9.97
2023-02-23T09:04:31.995Z,9.73
2023-02-23T09:06:59.189Z,8.63
2023-02-23T09:09:27.940Z,9.97
2023-02-23T09:11:55.261Z,9.37
2023-02-23T09:14:22.530Z,9.30
2023-02-23T09:16:49.821Z,10.23
2023-02-23T09:19:17.438Z,9.30
2023-02-23T09:21:45.126Z,10.43
2023-02-23T09:24:12.842Z,10.67
2023-02-23T09:26:41.562Z,9.47
2023-02-23T09:29:17.252Z,11.43
2023-02-23T09:31:44.617Z,11.07
2023-02-23T09:34:11.940Z,10.47
2023-02-23T09:36:39.675Z,10.20
2023-02-23T09:39:07.252Z,9.97
2023-02-23T09:41:53.839Z,10.50
2023-02-23T09:44:34.894Z,9.47
2023-02-23T09:47:07.306Z,9.27
2023-02-23T09:49:35.916Z,9.60
2023-02-23T09:52:04.018Z,9.60
2023-02-23T09:54:50.772Z,8.83
2023-02-23T09:57:34.590Z,10.90
2023-02-23T10:00:01.832Z,9.43
2023-02-23T10:02:35.421Z,9.67
2023-02-23T10:05:04.402Z,10.30
2023-02-23T10:07:40.624Z,10.53
2023-02-23T10:10:14.805Z,10.77
2023-02-23T10:12:47.663Z,9.67
2023-02-23T10:15:21.567Z,10.97
2023-02-23T10:17:55.597Z,11.33
2023-02-23T10:20:26.465Z,11.90
2023-02-23T10:22:54.583Z,12.43
2023-02-23T10:25:24.608Z,10.73
2023-02-23T10:27:54.673Z,11.57
2023-02-23T10:30:23.751Z,10.93
2023-02-23T10:32:53.557Z,11.83
2023-02-23T10:35:22.023Z,11.00
2023-02-23T10:37:49.988Z,11.00
2023-02-23T10:40:18.273Z,10.60
2023-02-23T10:42:45.921Z,10.90
2023-02-23T10:45:16.197Z,10.53
2023-02-23T10:47:44.046Z,12.50
2023-02-23T10:50:12.135Z,10.90
2023-02-23T10:52:42.321Z,11.50
2023-02-23T10:55:20.358Z,11.47
2023-02-23T10:57:47.654Z,12.13
2023-02-23T11:00:28.084Z,11.47
2023-02-23T11:02:56.476Z,13.23
2023-02-23T11:05:33.358Z,13.10
2023-02-23T11:08:10.854Z,12.40
2023-02-23T11:10:38.272Z,13.80
2023-02-23T11:13:05.555Z,13.43
2023-02-23T11:15:50.215Z,11.50
2023-02-23T11:18:20.724Z,12.43
2023-02-23T11:20:48.963Z,13.73
2023-02-23T11:23:18.567Z,12.70
2023-02-23T11:25:48.059Z,12.67
2023-02-23T11:28:18.073Z,9.53
2023-02-23T11:30:47.564Z,14.60
2023-02-23T11:33:17.072Z,14.53
2023-02-23T11:35:44.380Z,14.67
2023-02-23T11:38:23.634Z,15.70
2023-02-23T11:40:59.198Z,15.20
2023-02-23T11:43:26.413Z,15.80
2023-02-23T11:45:56.646Z,16.73
2023-02-23T11:48:27.496Z,16.43
2023-02-23T11:50:55.497Z,19.97
2023-02-23T11:53:27.652Z,18.43
2023-02-23T11:55:55.904Z,18.43
2023-02-23T11:58:24.434Z,20.70
2023-02-23T12:00:57.200Z,19.50
2023-02-23T12:03:25.738Z,21.33
2023-02-23T12:05:55.021Z,17.77
2023-02-23T12:08:28.663Z,18.20
2023-02-23T12:10:59.401Z,16.70
2023-02-23T12:13:28.432Z,18.83
2023-02-23T12:15:59.222Z,20.03
2023-02-23T12:18:35.603Z,19.37
2023-02-23T12:21:11.073Z,23.47
2023-02-23T12:23:41.978Z,17.93
2023-02-23T12:26:14.375Z,20.13
2023-02-23T12:28:46.159Z,21.80
2023-02-23T12:31:20.967Z,22.07
2023-02-23T12:33:49.273Z,19.57
2023-02-23T12:36:21.788Z,20.70
2023-02-23T12:38:52.660Z,22.03
2023-02-23T12:41:21.916Z,23.23
2023-02-23T12:43:51.478Z,26.03
2023-02-23T12:46:22.597Z,26.00
2023-02-23T12:48:55.807Z,23.10
2023-02-23T12:51:26.349Z,19.30
2023-02-23T12:53:53.646Z,22.93
2023-02-23T12:56:33.847Z,22.17
2023-02-23T12:59:10.033Z,21.27
2023-02-23T13:01:42.547Z,18.23
2023-02-23T13:04:19.540Z,17.67
2023-02-23T13:09:53.080Z,17.73
2023-02-23T13:12:28.620Z,14.37
2023-02-23T13:14:59.654Z,14.27
2023-02-23T13:17:33.883Z,15.00
2023-02-23T13:20:04.113Z,15.13
2023-02-23T13:22:43.298Z,13.87
2023-02-23T13:25:33.049Z,12.93
2023-02-23T13:28:02.529Z,12.13
2023-02-23T13:30:30.356Z,14.10
2023-02-23T13:32:59.860Z,14.03
2023-02-23T13:35:27.287Z,11.93
2023-02-23T13:37:55.997Z,11.53
2023-02-23T13:40:31.644Z,11.47
2023-02-23T13:43:06.624Z,11.90
2023-02-23T13:45:41.988Z,15.60
2023-02-23T13:48:17.314Z,15.63
2023-02-23T13:50:48.216Z,15.63
2023-02-23T13:53:29.384Z,13.97
2023-02-23T13:55:59.541Z,14.57
2023-02-23T13:58:49.354Z,13.70
2023-02-23T14:01:33.337Z,12.93
2023-02-23T14:04:03.523Z,14.13
2023-02-23T14:06:31.900Z,12.87
2023-02-23T14:09:00.367Z,13.10
2023-02-23T14:11:44.029Z,10.57
2023-02-23T14:14:13.223Z,11.53
2023-02-23T14:19:36.580Z,7.67
2023-02-23T14:22:05.828Z,8.20
2023-02-23T14:24:33.128Z,6.93
2023-02-23T14:27:38.527Z,6.80
2023-02-23T14:33:51.400Z,6.67
2023-02-23T14:36:30.480Z,8.30
2023-02-23T14:39:01.086Z,6.80
2023-02-23T14:41:31.481Z,6.37
2023-02-23T14:44:00.146Z,5.47
2023-02-23T14:46:27.947Z,5.60
2023-02-23T14:48:59.756Z,6.73
2023-02-23T14:51:33.410Z,5.13
2023-02-23T14:54:01.206Z,4.60
2023-02-23T14:56:43.315Z,5.40
2023-02-23T14:59:18.465Z,3.50
2023-02-23T15:01:45.732Z,3.93
2023-02-23T15:04:13.871Z,4.60
2023-02-23T15:06:42.636Z,4.37
2023-02-23T15:09:15.645Z,4.60
2023-02-23T15:11:43.349Z,4.73
2023-02-23T15:14:25.569Z,3.83
2023-02-23T15:16:56.076Z,4.07
2023-02-23T15:19:24.780Z,5.37
2023-02-23T15:21:54.684Z,6.27
2023-02-23T15:24:23.066Z,6.93
2023-02-23T15:26:51.326Z,9.77
2023-02-23T15:29:20.196Z,8.23
2023-02-23T15:31:48.707Z,5.90
2023-02-23T15:34:16.420Z,5.63
2023-02-23T15:36:44.982Z,5.73
2023-02-23T15:39:16.142Z,7.67
2023-02-23T15:41:46.374Z,5.63
2023-02-23T15:44:14.714Z,8.20
2023-02-23T15:46:42.875Z,6.30
2023-02-23T15:49:12.197Z,5.97
2023-02-23T15:51:41.732Z,6.40
2023-02-23T15:54:12.942Z,5.70
2023-02-23T15:56:41.552Z,7.03
2023-02-23T15:59:14.118Z,6.63
2023-02-23T16:01:45.314Z,6.70
2023-02-23T16:04:17.944Z,6.20
2023-02-23T16:06:51.998Z,6.97
2023-02-23T16:09:26.730Z,7.93
2023-02-23T16:11:57.011Z,7.07
2023-02-23T16:14:25.105Z,5.33
2023-02-23T16:17:10.112Z,7.67
2023-02-23T16:19:39.020Z,6.97
2023-02-23T16:22:07.020Z,6.47
2023-02-23T16:24:36.720Z,7.97
2023-02-23T16:27:05.701Z,5.53
2023-02-23T16:29:34.242Z,6.13
2023-02-23T16:32:02.512Z,5.47
2023-02-23T16:34:31.585Z,7.13
2023-02-23T16:36:59.816Z,5.67
2023-02-23T16:39:28.833Z,5.53
2023-02-23T16:41:56.468Z,6.60
2023-02-23T16:44:31.408Z,6.53
2023-02-23T16:47:12.094Z,7.93
2023-02-23T16:49:39.425Z,5.93
2023-02-23T16:52:13.661Z,7.30
2023-02-23T16:54:40.913Z,7.40
2023-02-23T16:57:13.716Z,7.07
2023-02-23T16:59:42.386Z,6.27
2023-02-23T17:02:10.520Z,7.43
2023-02-23T17:04:37.762Z,8.67
2023-02-23T17:07:05.029Z,6.23
2023-02-23T17:09:32.499Z,6.00
2023-02-23T17:11:59.866Z,6.03
2023-02-23T17:14:27.934Z,5.77
2023-02-23T17:17:02.110Z,5.67
2023-02-23T17:19:29.430Z,4.90
2023-02-23T17:21:56.688Z,6.40
2023-02-23T17:24:23.953Z,6.83
2023-02-23T17:26:57.312Z,5.53
2023-02-23T17:29:43.006Z,7.00
2023-02-23T17:32:18.242Z,4.30
2023-02-23T17:34:45.588Z,4.93
2023-02-23T17:37:12.862Z,4.93
2023-02-23T17:39:40.177Z,4.60
2023-02-23T17:42:07.404Z,6.00
2023-02-23T17:44:34.648Z,4.73
2023-02-23T17:47:01.909Z,4.93
2023-02-23T17:49:30.529Z,4.07
2023-02-23T17:51:57.762Z,4.40
2023-02-23T17:54:25.176Z,3.03
2023-02-23T17:56:52.430Z,5.80
2023-02-23T17:59:19.706Z,4.87
2023-02-23T18:01:48.471Z,5.27
2023-02-23T18:04:15.890Z,3.70
2023-02-23T18:06:44.498Z,4.17
2023-02-23T18:09:11.760Z,4.63
2023-02-23T18:11:39.031Z,4.33
2023-02-23T18:14:06.301Z,4.13
2023-02-23T18:16:33.570Z,4.07
2023-02-23T18:19:00.818Z,3.40
2023-02-23T18:21:28.408Z,4.43
2023-02-23T18:23:57.251Z,4.80
2023-02-23T18:26:24.910Z,4.10
2023-02-23T18:28:52.348Z,3.80
2023-02-23T18:31:21.365Z,4.27
2023-02-23T18:33:49.405Z,4.77
2023-02-23T18:36:18.148Z,4.47
2023-02-23T18:38:45.452Z,6.23
2023-02-23T18:41:14.138Z,4.07
2023-02-23T18:43:41.354Z,3.67
2023-02-23T18:46:08.939Z,5.60
2023-02-23T18:48:36.196Z,4.27
2023-02-23T18:51:03.613Z,5.20
2023-02-23T18:53:30.831Z,5.10
2023-02-23T18:55:58.238Z,3.77
2023-02-23T18:58:26.903Z,4.07
2023-02-23T19:00:54.349Z,3.83
2023-02-23T19:03:21.641Z,5.40
2023-02-23T19:05:48.926Z,5.10
2023-02-23T19:08:16.418Z,4.23
2023-02-23T19:10:43.637Z,4.67
2023-02-23T19:13:10.879Z,3.63
2023-02-23T19:15:39.498Z,4.07
2023-02-23T19:18:06.768Z,5.40
2023-02-23T19:20:34.070Z,6.17
2023-02-23T19:23:01.325Z,6.47
2023-02-23T19:25:28.553Z,3.87
2023-02-23T19:27:55.796Z,8.40
2023-02-23T19:30:23.057Z,6.23
2023-02-23T19:32:51.920Z,7.47
2023-02-23T19:35:19.364Z,5.47
2023-02-23T19:37:48.014Z,6.93
2023-02-23T19:40:15.544Z,5.13
2023-02-23T19:42:42.904Z,3.77
2023-02-23T19:45:10.322Z,6.83
2023-02-23T19:47:37.555Z,5.73
2023-02-23T19:50:06.659Z,8.43
2023-02-23T19:52:33.890Z,14.90
2023-02-23T19:55:01.202Z,14.63
2023-02-23T19:57:28.454Z,11.10
2023-02-23T19:59:55.766Z,7.80
2023-02-23T20:02:23.052Z,4.77
2023-02-23T20:04:50.774Z,9.03
2023-02-23T20:07:19.397Z,5.00
2023-02-23T20:09:46.617Z,5.00
2023-02-23T20:12:13.892Z,10.87
2023-02-23T20:14:41.099Z,11.43
2023-02-23T20:17:08.360Z,8.57
2023-02-23T20:19:35.612Z,10.97
2023-02-23T20:22:03.175Z,9.50
2023-02-23T20:24:31.874Z,9.70
2023-02-23T20:26:59.054Z,8.97
2023-02-23T20:29:26.278Z,13.33
2023-02-23T20:31:53.615Z,6.50
2023-02-23T20:34:24.146Z,14.20
2023-02-23T20:36:52.310Z,13.07
2023-02-23T20:39:19.579Z,14.63
2023-02-23T20:41:48.228Z,4.40
2023-02-23T20:44:16.053Z,41.23
2023-02-23T20:46:44.072Z,8.87
2023-02-23T20:49:11.806Z,16.20
2023-02-23T20:51:39.446Z,7.20
2023-02-23T20:54:07.150Z,4.93
2023-02-23T20:56:35.576Z,4.77
2023-02-23T20:59:04.889Z,4.40
2023-02-23T21:01:32.650Z,5.43
2023-02-23T21:04:00.362Z,5.53
2023-02-23T21:06:28.250Z,4.73
2023-02-23T21:08:56.024Z,4.37
2023-02-23T21:11:23.827Z,3.70
2023-02-23T21:13:51.387Z,3.50
2023-02-23T21:16:20.643Z,3.73
2023-02-23T21:18:49.294Z,4.10
2023-02-23T21:21:16.655Z,3.83
2023-02-23T21:23:44.002Z,3.80
2023-02-23T21:26:11.688Z,3.87
2023-02-23T21:28:38.932Z,3.90
2023-02-23T21:31:06.245Z,3.80
2023-02-23T21:33:34.877Z,4.13
2023-02-23T21:36:02.069Z,3.83
2023-02-23T21:38:29.324Z,4.00
2023-02-23T21:40:56.657Z,3.70
2023-02-23T21:43:23.926Z,3.43
2023-02-23T21:45:51.215Z,4.97
2023-02-23T21:48:18.421Z,4.70
2023-02-23T21:50:47.101Z,4.40
2023-02-23T21:53:14.296Z,3.93
2023-02-23T21:55:41.550Z,4.73
2023-02-23T21:58:08.790Z,3.60
2023-02-23T22:00:36.356Z,2.97
2023-02-23T22:03:03.750Z,3.50
2023-02-23T22:05:31.014Z,3.70
2023-02-23T22:07:59.593Z,2.80
2023-02-23T22:10:26.794Z,4.10
2023-02-23T22:12:54.004Z,4.00
2023-02-23T22:15:21.271Z,3.13
2023-02-23T22:17:48.718Z,3.57
2023-02-23T22:20:16.167Z,4.13
2023-02-23T22:22:43.386Z,3.20
2023-02-23T22:25:12.110Z,3.63
2023-02-23T22:27:39.305Z,3.50
2023-02-23T22:30:07.351Z,3.37
2023-02-23T22:32:34.923Z,4.80
2023-02-23T22:35:02.228Z,4.17
2023-02-23T22:37:29.467Z,3.80
2023-02-23T22:39:57.045Z,3.73
2023-02-23T22:42:25.711Z,2.97
2023-02-23T22:44:52.913Z,3.60
2023-02-23T22:47:20.140Z,3.53
2023-02-23T22:49:47.378Z,4.20
2023-02-23T22:52:14.774Z,3.73
2023-02-23T22:54:42.074Z,4.17
2023-02-23T22:57:09.281Z,4.23
2023-02-23T22:59:38.133Z,4.87
2023-02-23T23:02:05.446Z,3.67
2023-02-23T23:04:32.688Z,3.30
2023-02-23T23:06:59.946Z,3.63
2023-02-23T23:09:27.200Z,3.80
2023-02-23T23:11:54.410Z,3.47
2023-02-23T23:14:21.629Z,3.93
2023-02-23T23:16:50.387Z,3.67
2023-02-23T23:19:19.009Z,3.30
2023-02-23T23:21:46.586Z,3.10
2023-02-23T23:24:14.334Z,3.63
2023-02-23T23:26:41.753Z,3.43
2023-02-23T23:29:10.744Z,3.20
2023-02-23T23:34:16.431Z,4.40
2023-02-23T23:36:45.030Z,2.83
2023-02-23T23:39:12.649Z,3.00
2023-02-23T23:41:40.471Z,3.17
2023-02-23T23:44:07.766Z,3.23
2023-02-23T23:46:53.589Z,3.23
2023-02-23T23:49:24.940Z,2.57
2023-02-23T23:51:56.603Z,2.93
2023-02-23T23:54:25.610Z,3.00
2023-02-23T23:56:53.055Z,4.57
2023-02-23T23:59:21.328Z,4.27
